Current Weather

Buchanan Fld

Concord, California (KCCR)

Report from: Wednesday, April 24, 2024 8:53 PM PDT
Current time: Wednesday, April 24, 2024 9:44 PM PDT

Nearby weather – Weather history – Daily summaries
Weather forecast

Temperature13.3°C (55.9°F)
Dew point8.3°C (46.9°F)
Winds 9 kts (4.6 m/s, 10.4 mph) South-Southwest (210°)
Visibility10 mi. (16.1 km)
Clouds Few clouds 5,500 ft. (1,676 m)
Altimeter30.05 in.Hg (1018 mB)
Relative humidity72 %
Density altitude-148 ft. (-45 m)
Sea-level pressure101.6 kPa (1016 mB, 30.01 in.Hg)
Remarks Automated weather observing station with precipitation discriminator
Flight conditions Visual Meteorological Conditions
Raw dataKCCR 250353Z 21009KT 10SM FEW055 13/08 A3005 RMK AO2 SLP163 T01330083
An error has occurred. This application may no longer respond until reloaded. Reload 🗙